createdAt,value
2023-08-11T00:00:06.779Z,40.95
2023-08-11T00:01:06.977Z,40.93
2023-08-11T00:02:06.877Z,40.91
2023-08-11T00:03:06.945Z,40.92
2023-08-11T00:04:06.956Z,40.90
2023-08-11T00:05:07.002Z,40.93
2023-08-11T00:06:07.041Z,40.90
2023-08-11T00:07:07.295Z,40.91
2023-08-11T00:08:07.124Z,40.94
2023-08-11T00:09:07.166Z,40.93
2023-08-11T00:10:07.193Z,40.92
2023-08-11T00:11:07.265Z,40.92
2023-08-11T00:12:07.310Z,40.92
2023-08-11T00:13:07.325Z,40.94
2023-08-11T00:14:07.368Z,40.94
2023-08-11T00:15:07.416Z,40.95
2023-08-11T00:16:07.477Z,40.94
2023-08-11T00:17:07.705Z,40.96
2023-08-11T00:18:07.545Z,40.94
2023-08-11T00:19:07.576Z,40.98
2023-08-11T00:20:07.631Z,40.94
2023-08-11T00:21:07.667Z,40.97
2023-08-11T00:22:07.720Z,40.97
2023-08-11T00:23:07.766Z,40.98
2023-08-11T00:24:07.801Z,40.97
2023-08-11T00:25:07.861Z,40.97
2023-08-11T00:26:07.876Z,41.00
2023-08-11T00:27:08.231Z,40.96
2023-08-11T00:28:07.976Z,40.99
2023-08-11T00:29:08.024Z,40.99
2023-08-11T00:30:08.075Z,40.96
2023-08-11T00:31:08.150Z,40.97
2023-08-11T00:32:08.177Z,40.97
2023-08-11T00:33:08.239Z,40.98
2023-08-11T00:34:08.226Z,40.98
2023-08-11T00:35:08.299Z,40.98
2023-08-11T00:36:08.347Z,40.97
2023-08-11T00:37:08.577Z,40.98
2023-08-11T00:38:08.429Z,40.98
2023-08-11T00:39:08.453Z,40.98
2023-08-11T00:40:08.525Z,40.96
2023-08-11T00:41:08.574Z,40.99
2023-08-11T00:42:08.591Z,40.98
2023-08-11T00:43:08.644Z,40.96
2023-08-11T00:44:08.697Z,40.98
2023-08-11T00:45:08.726Z,41.00
2023-08-11T00:46:08.781Z,40.96
2023-08-11T00:47:09.000Z,40.98
2023-08-11T00:48:08.867Z,40.99
2023-08-11T00:49:08.912Z,41.00
2023-08-11T00:50:08.958Z,40.98
2023-08-11T00:51:08.996Z,40.99
2023-08-11T00:52:09.059Z,40.97
2023-08-11T00:53:09.131Z,41.01
2023-08-11T00:54:09.131Z,41.00
2023-08-11T00:55:09.224Z,41.00
2023-08-11T00:56:09.258Z,40.98
2023-08-11T00:57:09.349Z,40.98
2023-08-11T00:58:09.339Z,40.99
2023-08-11T00:59:09.352Z,40.99
2023-08-11T01:00:09.484Z,40.99
2023-08-11T01:01:09.469Z,41.00
2023-08-11T01:02:09.502Z,40.98
2023-08-11T01:03:09.561Z,41.00
2023-08-11T01:04:09.590Z,40.99
2023-08-11T01:05:09.627Z,40.97
2023-08-11T01:06:09.728Z,41.00
2023-08-11T01:07:09.930Z,40.96
2023-08-11T01:08:09.780Z,40.97
2023-08-11T01:09:09.820Z,41.00
2023-08-11T01:10:09.862Z,40.95
2023-08-11T01:11:09.899Z,40.96
2023-08-11T01:12:09.966Z,40.96
2023-08-11T01:13:10.250Z,41.00
2023-08-11T01:14:10.055Z,40.96
2023-08-11T01:15:10.091Z,40.97
2023-08-11T01:16:10.130Z,40.97
2023-08-11T01:17:10.450Z,40.96
2023-08-11T01:18:10.253Z,40.97
2023-08-11T01:19:10.269Z,40.98
2023-08-11T01:20:10.342Z,40.98
2023-08-11T01:21:10.352Z,40.96
2023-08-11T01:22:10.407Z,40.97
2023-08-11T01:23:10.452Z,40.96
2023-08-11T01:24:10.561Z,40.98
2023-08-11T01:25:10.581Z,40.98
2023-08-11T01:26:10.679Z,40.97
2023-08-11T01:27:10.713Z,40.98
2023-08-11T01:28:10.701Z,40.96
2023-08-11T01:29:10.752Z,40.97
2023-08-11T01:30:10.781Z,40.97
2023-08-11T01:31:10.863Z,40.96
2023-08-11T01:32:10.878Z,40.96
2023-08-11T01:33:10.928Z,40.97
2023-08-11T01:34:10.966Z,40.95
2023-08-11T01:35:11.368Z,40.95
2023-08-11T01:36:11.046Z,40.95
2023-08-11T01:37:11.388Z,40.97
2023-08-11T01:38:11.389Z,40.96
2023-08-11T01:39:11.198Z,40.97
2023-08-11T01:40:11.232Z,40.95
2023-08-11T01:41:11.290Z,40.96
2023-08-11T01:42:11.374Z,40.93
2023-08-11T01:43:11.445Z,40.94
2023-08-11T01:44:11.414Z,40.96
2023-08-11T01:45:11.458Z,40.94
2023-08-11T01:46:11.534Z,40.94
2023-08-11T01:47:11.549Z,40.95
2023-08-11T01:48:11.672Z,40.95
2023-08-11T01:49:11.654Z,40.92
2023-08-11T01:50:11.719Z,40.93
2023-08-11T01:51:11.748Z,40.92
2023-08-11T01:52:11.796Z,40.94
2023-08-11T01:53:11.822Z,40.94
2023-08-11T01:54:11.888Z,40.92
2023-08-11T01:55:11.950Z,40.92
2023-08-11T01:56:12.026Z,40.93
2023-08-11T01:57:12.041Z,40.92
2023-08-11T01:58:12.107Z,40.94
2023-08-11T01:59:12.140Z,40.93
2023-08-11T02:00:12.169Z,40.95
2023-08-11T02:01:12.218Z,40.92
2023-08-11T02:02:12.254Z,40.88
2023-08-11T02:03:12.412Z,40.93
2023-08-11T02:04:12.384Z,40.92
2023-08-11T02:05:12.400Z,40.92
2023-08-11T02:06:12.465Z,40.89
2023-08-11T02:07:12.509Z,40.92
2023-08-11T02:08:12.564Z,40.91
2023-08-11T02:09:12.620Z,40.89
2023-08-11T02:10:12.637Z,40.92
2023-08-11T02:11:12.719Z,40.91
2023-08-11T02:12:12.739Z,40.91
2023-08-11T02:13:12.809Z,40.93
2023-08-11T02:14:12.858Z,40.90
2023-08-11T02:15:12.889Z,40.89
2023-08-11T02:16:12.955Z,40.90
2023-08-11T02:17:12.970Z,40.89
2023-08-11T02:18:13.087Z,40.93
2023-08-11T02:19:13.071Z,40.95
2023-08-11T02:20:13.075Z,40.91
2023-08-11T02:21:13.149Z,40.88
2023-08-11T02:22:13.165Z,40.88
2023-08-11T02:23:13.245Z,40.92
2023-08-11T02:24:13.258Z,40.92
2023-08-11T02:25:13.330Z,40.90
2023-08-11T02:26:13.394Z,40.91
2023-08-11T02:27:13.413Z,40.90
2023-08-11T02:28:13.448Z,40.90
2023-08-11T02:29:13.505Z,40.91
2023-08-11T02:30:13.533Z,40.89
2023-08-11T02:31:13.626Z,40.91
2023-08-11T02:32:13.654Z,40.88
2023-08-11T02:33:13.710Z,40.89
2023-08-11T02:34:13.741Z,40.88
2023-08-11T02:35:13.771Z,40.87
2023-08-11T02:36:13.792Z,40.86
2023-08-11T02:37:13.860Z,40.86
2023-08-11T02:38:13.874Z,40.90
2023-08-11T02:39:13.949Z,40.87
2023-08-11T02:40:13.969Z,40.89
2023-08-11T02:41:13.998Z,40.83
2023-08-11T02:42:14.049Z,40.82
2023-08-11T02:43:14.127Z,40.89
2023-08-11T02:44:14.149Z,40.90
2023-08-11T02:45:14.181Z,40.88
2023-08-11T02:46:14.316Z,40.88
2023-08-11T02:47:14.275Z,40.87
2023-08-11T02:48:14.382Z,40.90
2023-08-11T02:49:14.391Z,40.89
2023-08-11T02:50:14.601Z,40.88
2023-08-11T02:51:14.482Z,40.90
2023-08-11T02:52:14.547Z,40.89
2023-08-11T02:53:14.577Z,40.90
2023-08-11T02:54:14.633Z,40.86
2023-08-11T02:55:14.671Z,40.89
2023-08-11T02:56:14.725Z,40.87
2023-08-11T02:57:14.788Z,40.87
2023-08-11T02:58:14.830Z,40.85
2023-08-11T02:59:14.882Z,40.86
2023-08-11T03:00:14.949Z,40.89
2023-08-11T03:01:14.999Z,40.85
2023-08-11T03:02:15.058Z,40.85
2023-08-11T03:03:15.164Z,40.88
2023-08-11T03:04:15.149Z,40.87
2023-08-11T03:05:15.206Z,40.88
2023-08-11T03:06:15.217Z,40.88
2023-08-11T03:07:15.287Z,40.85
2023-08-11T03:08:15.332Z,40.87
2023-08-11T03:09:15.393Z,40.85
2023-08-11T03:10:15.445Z,40.86
2023-08-11T03:11:15.484Z,40.84
2023-08-11T03:12:15.520Z,40.85
2023-08-11T03:13:15.588Z,40.85
2023-08-11T03:14:15.679Z,40.86
2023-08-11T03:15:15.676Z,40.86
2023-08-11T03:16:15.756Z,40.89
2023-08-11T03:17:15.766Z,40.85
2023-08-11T03:18:15.821Z,40.84
2023-08-11T03:19:15.867Z,40.84
2023-08-11T03:20:15.938Z,40.85
2023-08-11T03:21:20.308Z,40.83
2023-08-11T03:22:15.967Z,40.85
2023-08-11T03:23:15.962Z,40.88
2023-08-11T03:24:15.958Z,40.85
2023-08-11T03:25:15.942Z,40.86
2023-08-11T03:26:15.963Z,40.83
2023-08-11T03:27:15.929Z,40.84
2023-08-11T03:28:15.936Z,40.82
2023-08-11T03:29:15.900Z,40.83
2023-08-11T03:30:15.924Z,40.83
2023-08-11T03:31:15.908Z,40.83
2023-08-11T03:32:15.935Z,40.83
2023-08-11T03:33:17.603Z,40.85
2023-08-11T03:34:15.885Z,40.82
2023-08-11T03:35:15.888Z,40.83
2023-08-11T03:36:15.881Z,40.84
2023-08-11T03:37:15.891Z,40.82
2023-08-11T03:38:15.855Z,40.82
2023-08-11T03:39:15.846Z,40.84
2023-08-11T03:40:15.855Z,40.83
2023-08-11T03:41:15.833Z,40.80
2023-08-11T03:42:16.062Z,40.80
2023-08-11T03:43:15.825Z,40.80
2023-08-11T03:44:15.822Z,40.80
2023-08-11T03:45:15.860Z,40.79
2023-08-11T03:46:15.846Z,40.76
2023-08-11T03:47:15.804Z,40.77
2023-08-11T03:48:15.800Z,40.77
2023-08-11T03:49:15.798Z,40.79
2023-08-11T03:50:15.781Z,40.80
2023-08-11T03:51:15.778Z,40.80
2023-08-11T03:52:15.765Z,40.79
2023-08-11T03:53:15.812Z,40.80
2023-08-11T03:54:15.774Z,40.80
2023-08-11T03:55:15.768Z,40.80
2023-08-11T03:56:15.742Z,40.78
2023-08-11T03:57:15.760Z,40.74
2023-08-11T03:58:15.727Z,40.77
2023-08-11T03:59:15.751Z,40.76
2023-08-11T04:00:15.836Z,40.78
2023-08-11T04:01:15.790Z,40.77
2023-08-11T04:02:15.700Z,40.78
2023-08-11T04:03:15.817Z,40.76
2023-08-11T04:04:15.692Z,40.73
2023-08-11T04:05:15.715Z,40.77
2023-08-11T04:06:15.697Z,40.76
2023-08-11T04:07:15.700Z,40.76
2023-08-11T04:08:15.685Z,40.75
2023-08-11T04:09:15.678Z,40.73
2023-08-11T04:10:15.669Z,40.75
2023-08-11T04:11:15.638Z,40.76
2023-08-11T04:12:15.652Z,40.71
2023-08-11T04:13:15.661Z,40.72
2023-08-11T04:14:15.615Z,40.74
2023-08-11T04:15:15.632Z,40.70
2023-08-11T04:16:15.661Z,40.71
2023-08-11T04:17:15.697Z,40.71
2023-08-11T04:18:15.746Z,40.68
2023-08-11T04:19:15.809Z,40.71
2023-08-11T04:20:15.876Z,40.71
2023-08-11T04:21:15.903Z,40.72
2023-08-11T04:22:20.214Z,40.72
2023-08-11T04:23:16.980Z,40.68
2023-08-11T04:24:15.975Z,40.69
2023-08-11T04:25:15.987Z,40.72
2023-08-11T04:26:15.947Z,40.71
2023-08-11T04:27:15.918Z,40.71
2023-08-11T04:28:15.918Z,40.71
2023-08-11T04:29:15.949Z,40.69
2023-08-11T04:30:15.915Z,40.69
2023-08-11T04:31:15.989Z,40.67
2023-08-11T04:32:15.894Z,40.65
2023-08-11T04:33:16.001Z,40.64
2023-08-11T04:34:16.007Z,40.66
2023-08-11T04:35:16.062Z,40.65
2023-08-11T04:36:16.129Z,40.64
2023-08-11T04:37:16.163Z,40.64
2023-08-11T04:38:16.211Z,40.64
2023-08-11T04:39:16.292Z,40.62
2023-08-11T04:40:16.332Z,40.63
2023-08-11T04:41:16.381Z,40.62
2023-08-11T04:42:16.437Z,40.61
2023-08-11T04:43:16.477Z,40.60
2023-08-11T04:44:16.527Z,40.61
2023-08-11T04:45:16.620Z,40.60
2023-08-11T04:46:16.662Z,40.60
2023-08-11T04:47:16.704Z,40.62
2023-08-11T04:48:16.758Z,40.58
2023-08-11T04:49:16.785Z,40.59
2023-08-11T04:50:16.844Z,40.57
2023-08-11T04:51:16.890Z,40.57
2023-08-11T04:52:16.941Z,40.58
2023-08-11T04:53:16.989Z,40.56
2023-08-11T04:54:17.024Z,40.52
2023-08-11T04:55:17.113Z,40.55
2023-08-11T04:56:17.129Z,40.54
2023-08-11T04:57:17.178Z,40.54
2023-08-11T04:58:17.224Z,40.54
2023-08-11T04:59:17.836Z,40.53
2023-08-11T05:00:17.359Z,40.51
2023-08-11T05:01:17.442Z,40.50
2023-08-11T05:02:17.444Z,40.49
2023-08-11T05:03:17.582Z,40.50
2023-08-11T05:04:17.570Z,40.45
2023-08-11T05:05:17.585Z,40.46
2023-08-11T05:06:17.659Z,40.45
2023-08-11T05:07:17.678Z,40.44
2023-08-11T05:08:17.717Z,40.44
2023-08-11T05:09:17.769Z,40.45
2023-08-11T05:10:17.814Z,40.42
2023-08-11T05:11:17.871Z,40.44
2023-08-11T05:12:17.947Z,40.42
2023-08-11T05:13:17.995Z,40.40
2023-08-11T05:14:18.013Z,40.39
2023-08-11T05:15:18.092Z,40.40
2023-08-11T05:16:18.130Z,40.37
2023-08-11T05:17:18.154Z,40.35
2023-08-11T05:18:18.180Z,40.34
2023-08-11T05:19:18.212Z,40.36
2023-08-11T05:20:18.284Z,40.32
2023-08-11T05:21:18.315Z,40.36
2023-08-11T05:22:18.367Z,40.35
2023-08-11T05:23:18.387Z,40.33
2023-08-11T05:24:18.453Z,40.32
2023-08-11T05:25:18.512Z,40.30
2023-08-11T05:26:18.548Z,40.30
2023-08-11T05:27:18.574Z,40.29
2023-08-11T05:28:18.656Z,40.29
2023-08-11T05:29:18.675Z,40.29
2023-08-11T05:30:18.726Z,40.27
2023-08-11T05:31:18.819Z,40.27
2023-08-11T05:32:18.824Z,40.28
2023-08-11T05:33:18.843Z,40.26
2023-08-11T05:34:18.890Z,40.26
2023-08-11T05:35:18.921Z,40.24
2023-08-11T05:36:18.999Z,40.22
2023-08-11T05:37:18.995Z,40.19
2023-08-11T05:38:19.066Z,40.21
2023-08-11T05:39:19.092Z,40.18
2023-08-11T05:40:19.126Z,40.17
2023-08-11T05:41:19.176Z,40.12
2023-08-11T05:42:19.204Z,40.15
2023-08-11T05:43:19.258Z,40.13
2023-08-11T05:44:19.313Z,40.14
2023-08-11T05:45:19.335Z,40.15
2023-08-11T05:46:19.372Z,40.13
2023-08-11T05:47:19.428Z,40.15
2023-08-11T05:48:19.448Z,40.12
2023-08-11T05:49:19.475Z,40.10
2023-08-11T05:50:19.499Z,40.09
2023-08-11T05:51:19.578Z,40.10
2023-08-11T05:52:19.576Z,40.07
2023-08-11T05:53:19.603Z,40.07
2023-08-11T05:54:19.661Z,40.09
2023-08-11T05:55:19.702Z,40.05
2023-08-11T05:56:19.729Z,40.03
2023-08-11T05:57:19.745Z,40.01
2023-08-11T05:58:19.767Z,40.01
2023-08-11T05:59:19.820Z,39.95
2023-08-11T06:00:19.842Z,39.96
2023-08-11T06:01:19.908Z,39.96
2023-08-11T06:02:19.936Z,39.92
2023-08-11T06:03:19.946Z,39.93
2023-08-11T06:04:19.966Z,39.89
2023-08-11T06:05:19.991Z,39.90
2023-08-11T06:06:20.055Z,39.90
2023-08-11T06:07:20.072Z,39.92
2023-08-11T06:08:20.099Z,39.92
2023-08-11T06:09:20.167Z,39.90
2023-08-11T06:10:20.178Z,39.91
2023-08-11T06:11:20.209Z,39.90
2023-08-11T06:12:20.278Z,39.91
2023-08-11T06:13:20.347Z,39.89
2023-08-11T06:14:20.334Z,39.93
2023-08-11T06:15:20.365Z,39.92
2023-08-11T06:16:20.424Z,39.90
2023-08-11T06:17:20.450Z,39.93
2023-08-11T06:18:20.484Z,39.93
2023-08-11T06:19:20.501Z,39.93
2023-08-11T06:20:26.599Z,39.89
2023-08-11T06:21:21.566Z,39.91
2023-08-11T06:22:20.548Z,39.88
2023-08-11T06:23:20.532Z,39.90
2023-08-11T06:24:20.540Z,39.87
2023-08-11T06:25:20.509Z,39.86
2023-08-11T06:26:20.518Z,39.85
2023-08-11T06:27:20.535Z,39.85
2023-08-11T06:28:20.511Z,39.85
2023-08-11T06:29:20.494Z,39.86
2023-08-11T06:30:20.518Z,39.83
2023-08-11T06:31:20.515Z,39.86
2023-08-11T06:32:20.471Z,39.86
2023-08-11T06:33:20.465Z,39.87
2023-08-11T06:34:20.491Z,39.83
2023-08-11T06:35:20.516Z,39.84
2023-08-11T06:36:20.940Z,39.82
2023-08-11T06:37:20.606Z,39.85
2023-08-11T06:38:20.644Z,39.81
2023-08-11T06:39:20.682Z,39.82
2023-08-11T06:40:20.704Z,39.82
2023-08-11T06:41:20.744Z,39.82
2023-08-11T06:42:20.810Z,39.82
2023-08-11T06:43:20.831Z,39.81
2023-08-11T06:44:20.872Z,39.82
2023-08-11T06:45:20.904Z,39.82
2023-08-11T06:46:21.011Z,39.81
2023-08-11T06:47:20.984Z,39.84
2023-08-11T06:48:21.042Z,39.84
2023-08-11T06:49:21.084Z,39.85
2023-08-11T06:50:21.122Z,39.85
2023-08-11T06:51:21.140Z,39.81
2023-08-11T06:52:21.182Z,39.82
2023-08-11T06:53:21.207Z,39.83
2023-08-11T06:54:21.249Z,39.85
2023-08-11T06:55:21.270Z,39.83
2023-08-11T06:56:21.313Z,39.85
2023-08-11T06:57:21.448Z,39.85
2023-08-11T06:58:22.798Z,39.82
2023-08-11T06:59:21.360Z,39.82
2023-08-11T07:00:21.357Z,39.82
2023-08-11T07:01:21.402Z,39.81
2023-08-11T07:02:21.420Z,39.78
2023-08-11T07:03:21.453Z,39.79
2023-08-11T07:04:21.349Z,39.81
2023-08-11T07:05:21.309Z,39.80
2023-08-11T07:06:21.335Z,39.78
2023-08-11T07:07:21.384Z,39.79
2023-08-11T07:08:21.325Z,39.79
2023-08-11T07:09:21.321Z,39.80
2023-08-11T07:10:21.280Z,39.80
2023-08-11T07:11:21.308Z,39.78
2023-08-11T07:12:21.292Z,39.77
2023-08-11T07:13:21.310Z,39.77
2023-08-11T07:14:21.259Z,39.77
2023-08-11T07:15:21.253Z,39.77
2023-08-11T07:16:21.373Z,39.79
2023-08-11T07:17:21.243Z,39.78
2023-08-11T07:18:21.260Z,39.78
2023-08-11T07:19:21.253Z,39.75
2023-08-11T07:20:21.234Z,39.76
2023-08-11T07:21:21.206Z,39.77
2023-08-11T07:22:21.255Z,39.77
2023-08-11T07:23:21.214Z,39.73
2023-08-11T07:24:21.220Z,39.74
2023-08-11T07:25:21.214Z,39.73
2023-08-11T07:26:21.235Z,39.73
2023-08-11T07:27:21.195Z,39.73
2023-08-11T07:28:21.187Z,39.72
2023-08-11T07:29:21.178Z,39.70
2023-08-11T07:30:21.150Z,39.70
2023-08-11T07:31:21.228Z,39.69
2023-08-11T07:32:21.131Z,39.69
2023-08-11T07:33:21.194Z,39.69
2023-08-11T07:34:21.141Z,39.70
2023-08-11T07:35:21.108Z,39.67
2023-08-11T07:36:21.203Z,39.64
2023-08-11T07:37:21.127Z,39.65
2023-08-11T07:38:21.489Z,39.66
2023-08-11T07:39:23.856Z,39.63
2023-08-11T07:40:21.096Z,39.64
2023-08-11T07:41:21.093Z,39.63
2023-08-11T07:42:21.072Z,39.64
2023-08-11T07:43:21.077Z,39.65
2023-08-11T07:44:21.108Z,39.64
2023-08-11T07:45:21.123Z,39.63
2023-08-11T07:46:21.130Z,39.63
2023-08-11T07:47:21.032Z,39.63
2023-08-11T07:48:21.044Z,39.62
2023-08-11T07:49:21.044Z,39.60
2023-08-11T07:50:21.028Z,39.62
2023-08-11T07:51:21.048Z,39.64
2023-08-11T07:52:21.002Z,39.64
2023-08-11T07:53:21.017Z,39.62
2023-08-11T07:54:21.238Z,39.64
2023-08-11T07:55:21.198Z,39.62
2023-08-11T07:56:21.029Z,39.65
2023-08-11T07:57:20.967Z,39.60
2023-08-11T07:58:20.968Z,39.62
2023-08-11T07:59:20.991Z,39.61
2023-08-11T08:00:21.022Z,39.59
2023-08-11T08:01:21.053Z,39.59
2023-08-11T08:02:20.945Z,39.62
2023-08-11T08:03:21.045Z,39.61
2023-08-11T08:04:20.966Z,39.61
2023-08-11T08:05:21.909Z,39.59
2023-08-11T08:06:20.973Z,39.60
2023-08-11T08:07:20.916Z,39.58
2023-08-11T08:08:20.905Z,39.59
2023-08-11T08:09:20.896Z,39.59
2023-08-11T08:10:20.905Z,39.61
2023-08-11T08:11:20.906Z,39.61
2023-08-11T08:12:20.900Z,39.60
2023-08-11T08:13:20.895Z,39.56
2023-08-11T08:14:20.896Z,39.58
2023-08-11T08:15:20.908Z,39.59
2023-08-11T08:16:20.956Z,39.56
2023-08-11T08:17:20.840Z,39.57
2023-08-11T08:18:20.867Z,39.56
2023-08-11T08:19:20.831Z,39.55
2023-08-11T08:20:20.855Z,39.54
2023-08-11T08:21:20.857Z,39.55
2023-08-11T08:22:20.831Z,39.57
2023-08-11T08:23:20.837Z,39.53
2023-08-11T08:24:20.858Z,39.54
2023-08-11T08:25:20.794Z,39.52
2023-08-11T08:26:20.793Z,39.53
2023-08-11T08:27:20.780Z,39.54
2023-08-11T08:28:20.779Z,39.52
2023-08-11T08:29:20.760Z,39.52
2023-08-11T08:30:20.843Z,39.52
2023-08-11T08:31:20.761Z,39.51
2023-08-11T08:32:20.744Z,39.50
2023-08-11T08:33:20.819Z,39.48
2023-08-11T08:34:20.725Z,39.50
2023-08-11T08:35:20.717Z,39.50
2023-08-11T08:36:20.752Z,39.47
2023-08-11T08:37:20.728Z,39.47
2023-08-11T08:38:20.716Z,39.47
2023-08-11T08:39:20.716Z,39.46
2023-08-11T08:40:20.701Z,39.47
2023-08-11T08:41:20.705Z,39.43
2023-08-11T08:42:20.670Z,39.46
2023-08-11T08:43:20.683Z,39.46
2023-08-11T08:44:20.675Z,39.49
2023-08-11T08:45:20.678Z,39.46
2023-08-11T08:46:20.664Z,39.46
2023-08-11T08:47:20.670Z,39.43
2023-08-11T08:48:20.654Z,39.44
2023-08-11T08:49:20.643Z,39.45
2023-08-11T08:50:20.644Z,39.46
2023-08-11T08:51:20.620Z,39.47
2023-08-11T08:52:20.611Z,39.45
2023-08-11T08:53:20.594Z,39.42
2023-08-11T08:54:20.608Z,39.40
2023-08-11T08:55:20.607Z,39.40
2023-08-11T08:56:20.578Z,39.39
2023-08-11T08:57:20.717Z,39.40
2023-08-11T08:58:20.582Z,39.39
2023-08-11T08:59:20.583Z,39.40
2023-08-11T09:00:20.572Z,39.41
2023-08-11T09:01:20.621Z,39.40
2023-08-11T09:02:20.646Z,39.40
2023-08-11T09:03:20.727Z,39.41
2023-08-11T09:04:20.742Z,39.40
2023-08-11T09:05:20.634Z,39.42
2023-08-11T09:06:20.668Z,39.42
2023-08-11T09:07:20.679Z,39.41
2023-08-11T09:08:20.723Z,39.42
2023-08-11T09:09:20.711Z,39.41
2023-08-11T09:10:20.705Z,39.45
2023-08-11T09:11:20.737Z,39.46
2023-08-11T09:12:20.791Z,39.44
2023-08-11T09:13:20.762Z,39.47
2023-08-11T09:14:20.800Z,39.47
2023-08-11T09:15:20.810Z,39.47
2023-08-11T09:16:20.876Z,39.46
2023-08-11T09:17:20.853Z,39.48
2023-08-11T09:18:20.903Z,39.47
2023-08-11T09:19:20.880Z,39.45
2023-08-11T09:20:20.881Z,39.46
2023-08-11T09:21:20.956Z,39.45
2023-08-11T09:22:20.926Z,39.44
2023-08-11T09:23:21.352Z,39.46
2023-08-11T09:24:20.998Z,39.45
2023-08-11T09:25:20.987Z,39.44
2023-08-11T09:26:21.017Z,39.42
2023-08-11T09:27:21.081Z,39.40
2023-08-11T09:28:21.040Z,39.41
2023-08-11T09:29:21.118Z,39.41
2023-08-11T09:30:21.053Z,39.43
2023-08-11T09:31:21.114Z,39.43
2023-08-11T09:32:21.100Z,39.43
2023-08-11T09:33:21.119Z,39.41
2023-08-11T09:34:21.138Z,39.41
2023-08-11T09:35:21.113Z,39.40
2023-08-11T09:36:21.140Z,39.42
2023-08-11T09:37:21.164Z,39.42
2023-08-11T09:38:21.980Z,39.43
2023-08-11T09:39:21.178Z,39.41
2023-08-11T09:40:21.177Z,39.41
2023-08-11T09:41:21.202Z,39.41
2023-08-11T09:42:21.203Z,39.40
2023-08-11T09:43:21.233Z,39.41
2023-08-11T09:44:21.325Z,39.42
2023-08-11T09:45:21.265Z,39.43
2023-08-11T09:46:26.667Z,39.47
2023-08-11T09:47:23.226Z,39.46
2023-08-11T09:48:21.284Z,39.47
2023-08-11T09:49:21.286Z,39.46
2023-08-11T09:50:21.235Z,39.45
2023-08-11T09:51:21.237Z,39.45
2023-08-11T09:52:21.246Z,39.46
2023-08-11T09:53:21.250Z,39.44
2023-08-11T09:54:21.232Z,39.43
2023-08-11T09:55:21.249Z,39.42
2023-08-11T09:56:21.210Z,39.45
2023-08-11T09:57:21.200Z,39.45
2023-08-11T09:58:21.236Z,39.46
2023-08-11T09:59:21.178Z,39.47
2023-08-11T10:00:21.183Z,39.43
2023-08-11T10:01:22.412Z,39.46
2023-08-11T10:02:21.182Z,39.46
2023-08-11T10:03:21.264Z,39.48
2023-08-11T10:04:21.147Z,39.47
2023-08-11T10:05:21.176Z,39.46
2023-08-11T10:06:21.192Z,39.49
2023-08-11T10:07:21.212Z,39.47
2023-08-11T10:08:21.228Z,39.48
2023-08-11T10:09:21.240Z,39.51
2023-08-11T10:10:21.253Z,39.48
2023-08-11T10:11:21.261Z,39.47
2023-08-11T10:12:21.274Z,39.44
2023-08-11T10:13:21.298Z,39.44
2023-08-11T10:14:21.316Z,39.44
2023-08-11T10:15:21.341Z,39.43
2023-08-11T10:16:21.432Z,39.42
2023-08-11T10:17:21.427Z,39.43
2023-08-11T10:18:21.403Z,39.40
2023-08-11T10:19:21.387Z,39.38
2023-08-11T10:20:21.379Z,39.41
2023-08-11T10:21:21.409Z,39.39
2023-08-11T10:22:21.412Z,39.37
2023-08-11T10:23:21.462Z,39.37
2023-08-11T10:24:21.426Z,39.34
2023-08-11T10:25:21.416Z,39.33
2023-08-11T10:26:21.399Z,39.33
2023-08-11T10:27:21.431Z,39.33
2023-08-11T10:28:21.422Z,39.29
2023-08-11T10:29:21.512Z,39.31
2023-08-11T10:30:21.433Z,39.29
2023-08-11T10:31:21.458Z,39.24
2023-08-11T10:32:21.436Z,39.23
2023-08-11T10:33:21.418Z,39.26
2023-08-11T10:34:21.438Z,39.20
2023-08-11T10:35:21.461Z,39.18
2023-08-11T10:36:21.436Z,39.17
2023-08-11T10:37:21.418Z,39.17
2023-08-11T10:38:21.420Z,39.13
2023-08-11T10:39:21.447Z,39.16
2023-08-11T10:40:21.462Z,39.15
2023-08-11T10:41:21.458Z,39.15
2023-08-11T10:42:21.456Z,39.15
2023-08-11T10:43:21.447Z,39.14
2023-08-11T10:44:21.495Z,39.12
2023-08-11T10:45:21.565Z,39.11
2023-08-11T10:46:21.594Z,39.09
2023-08-11T10:47:21.546Z,39.09
2023-08-11T10:48:21.615Z,39.09
2023-08-11T10:49:21.611Z,39.08
2023-08-11T10:50:21.651Z,39.06
2023-08-11T10:51:21.672Z,39.04
2023-08-11T10:52:21.669Z,39.03
2023-08-11T10:53:21.803Z,39.04
2023-08-11T10:54:21.774Z,39.01
2023-08-11T10:55:21.848Z,39.00
2023-08-11T10:56:21.906Z,38.97
2023-08-11T10:57:21.886Z,38.95
2023-08-11T10:58:21.943Z,38.96
2023-08-11T10:59:22.074Z,38.94
2023-08-11T11:00:22.039Z,38.94
2023-08-11T11:01:22.150Z,38.92
2023-08-11T11:02:22.132Z,38.90
2023-08-11T11:03:22.200Z,38.90
2023-08-11T11:04:22.276Z,38.90
2023-08-11T11:05:22.321Z,38.90
2023-08-11T11:06:22.393Z,38.89
2023-08-11T11:07:22.441Z,38.89
2023-08-11T11:08:22.496Z,38.88
2023-08-11T11:09:23.125Z,38.88
2023-08-11T11:10:24.184Z,38.87
2023-08-11T11:11:23.673Z,38.86
2023-08-11T11:12:22.619Z,38.85
2023-08-11T11:13:22.614Z,38.85
2023-08-11T11:14:22.669Z,38.83
2023-08-11T11:15:22.624Z,38.82
2023-08-11T11:16:22.657Z,38.81
2023-08-11T11:17:22.627Z,38.82
2023-08-11T11:18:22.624Z,38.79
2023-08-11T11:19:22.639Z,38.81
2023-08-11T11:20:22.697Z,38.80
2023-08-11T11:21:22.761Z,38.79
2023-08-11T11:22:22.809Z,38.75
2023-08-11T11:23:22.907Z,38.74
2023-08-11T11:24:22.953Z,38.76
2023-08-11T11:25:23.019Z,38.74
2023-08-11T11:26:23.084Z,38.75
2023-08-11T11:27:23.155Z,38.73
2023-08-11T11:28:23.185Z,38.73
2023-08-11T11:29:23.267Z,38.73
2023-08-11T11:30:23.393Z,38.74
2023-08-11T11:31:23.396Z,38.70
2023-08-11T11:32:23.475Z,38.71
2023-08-11T11:33:23.513Z,38.70
2023-08-11T11:34:23.736Z,38.72
2023-08-11T11:35:23.617Z,38.72
2023-08-11T11:36:23.681Z,38.72
2023-08-11T11:37:23.763Z,38.72
2023-08-11T11:38:23.815Z,38.69
2023-08-11T11:39:23.858Z,38.70
2023-08-11T11:40:23.931Z,38.71
2023-08-11T11:41:23.973Z,38.70
2023-08-11T11:42:24.042Z,38.69
2023-08-11T11:43:24.102Z,38.71
2023-08-11T11:44:24.155Z,38.69
2023-08-11T11:45:24.180Z,38.68
2023-08-11T11:46:24.351Z,38.69
2023-08-11T11:47:24.303Z,38.69
2023-08-11T11:48:24.363Z,38.68
2023-08-11T11:49:30.234Z,38.71
2023-08-11T11:50:25.446Z,38.69
2023-08-11T11:51:24.429Z,38.69
2023-08-11T11:52:24.406Z,38.70
2023-08-11T11:53:24.427Z,38.66
2023-08-11T11:54:24.403Z,38.68
2023-08-11T11:55:24.407Z,38.69
2023-08-11T11:56:24.404Z,38.67
2023-08-11T11:57:24.393Z,38.65
2023-08-11T11:58:24.426Z,38.67
2023-08-11T11:59:24.480Z,38.66
2023-08-11T12:00:24.624Z,38.67
2023-08-11T12:01:24.661Z,38.68
2023-08-11T12:02:24.685Z,38.68
2023-08-11T12:03:24.700Z,38.66
2023-08-11T12:04:24.833Z,38.66
2023-08-11T12:05:24.845Z,38.68
2023-08-11T12:06:24.871Z,38.67
2023-08-11T12:07:24.953Z,38.69
2023-08-11T12:08:25.007Z,38.68
2023-08-11T12:09:25.066Z,38.69
2023-08-11T12:10:25.160Z,38.70
2023-08-11T12:11:25.209Z,38.70
2023-08-11T12:12:25.226Z,38.71
2023-08-11T12:13:25.289Z,38.71
2023-08-11T12:14:25.359Z,38.70
2023-08-11T12:15:25.405Z,38.72
2023-08-11T12:16:25.587Z,38.71
2023-08-11T12:17:25.546Z,38.70
2023-08-11T12:18:25.589Z,38.70
2023-08-11T12:19:26.548Z,38.72
2023-08-11T12:20:25.740Z,38.73
2023-08-11T12:21:25.755Z,38.71
2023-08-11T12:22:25.833Z,38.74
2023-08-11T12:23:25.887Z,38.72
2023-08-11T12:24:25.965Z,38.74
2023-08-11T12:25:26.013Z,38.71
2023-08-11T12:26:26.047Z,38.75
2023-08-11T12:27:26.115Z,38.77
2023-08-11T12:28:26.181Z,38.72
2023-08-11T12:29:26.209Z,38.76
2023-08-11T12:30:26.282Z,38.77
2023-08-11T12:31:26.334Z,38.75
2023-08-11T12:32:26.457Z,38.77
2023-08-11T12:33:26.553Z,38.76
2023-08-11T12:34:26.505Z,38.76
2023-08-11T12:35:26.564Z,38.78
2023-08-11T12:36:26.593Z,38.76
2023-08-11T12:37:26.651Z,38.76
2023-08-11T12:38:26.706Z,38.78
2023-08-11T12:39:26.838Z,38.76
2023-08-11T12:40:26.821Z,38.77
2023-08-11T12:41:26.868Z,38.77
2023-08-11T12:42:26.913Z,38.80
2023-08-11T12:43:26.975Z,38.80
2023-08-11T12:44:27.012Z,38.81
2023-08-11T12:45:27.072Z,38.79
2023-08-11T12:46:27.140Z,38.79
2023-08-11T12:47:27.205Z,38.79
2023-08-11T12:48:27.222Z,38.82
2023-08-11T12:49:27.260Z,38.81
2023-08-11T12:50:27.313Z,38.80
2023-08-11T12:51:27.340Z,38.81
2023-08-11T12:52:27.425Z,38.82